sensor_id;sensor_type;location;lat;lon;timestamp;P1;durP1;ratioP1;P2;durP2;ratioP2
31206;SDS011;17834;52.992;8.856;2024-02-14T00:01:30;6.47;;;2.78;;
31206;SDS011;17834;52.992;8.856;2024-02-14T00:03:56;5.43;;;3.05;;
31206;SDS011;17834;52.992;8.856;2024-02-14T00:06:21;7.28;;;3.28;;
31206;SDS011;17834;52.992;8.856;2024-02-14T00:08:48;7.00;;;3.20;;
31206;SDS011;17834;52.992;8.856;2024-02-14T00:11:14;5.78;;;3.22;;
31206;SDS011;17834;52.992;8.856;2024-02-14T00:13:39;4.95;;;2.85;;
31206;SDS011;17834;52.992;8.856;2024-02-14T00:16:05;4.63;;;2.75;;
31206;SDS011;17834;52.992;8.856;2024-02-14T00:18:31;5.53;;;2.60;;
31206;SDS011;17834;52.992;8.856;2024-02-14T00:20:57;7.63;;;2.90;;
31206;SDS011;17834;52.992;8.856;2024-02-14T00:23:22;4.68;;;2.88;;
31206;SDS011;17834;52.992;8.856;2024-02-14T00:25:48;7.03;;;2.75;;
31206;SDS011;17834;52.992;8.856;2024-02-14T00:28:13;6.32;;;3.08;;
31206;SDS011;17834;52.992;8.856;2024-02-14T00:30:39;6.47;;;3.20;;
31206;SDS011;17834;52.992;8.856;2024-02-14T00:33:04;5.50;;;2.83;;
31206;SDS011;17834;52.992;8.856;2024-02-14T00:35:30;6.80;;;2.63;;
31206;SDS011;17834;52.992;8.856;2024-02-14T00:37:56;7.05;;;2.40;;
31206;SDS011;17834;52.992;8.856;2024-02-14T00:40:21;5.93;;;2.83;;
31206;SDS011;17834;52.992;8.856;2024-02-14T00:42:47;5.75;;;3.30;;
31206;SDS011;17834;52.992;8.856;2024-02-14T00:45:13;5.95;;;3.30;;
31206;SDS011;17834;52.992;8.856;2024-02-14T00:47:38;5.88;;;2.67;;
31206;SDS011;17834;52.992;8.856;2024-02-14T00:50:04;6.38;;;3.25;;
31206;SDS011;17834;52.992;8.856;2024-02-14T00:52:30;4.82;;;3.22;;
31206;SDS011;17834;52.992;8.856;2024-02-14T00:54:56;5.15;;;3.03;;
31206;SDS011;17834;52.992;8.856;2024-02-14T00:57:22;5.85;;;2.90;;
31206;SDS011;17834;52.992;8.856;2024-02-14T00:59:51;5.30;;;2.72;;
31206;SDS011;17834;52.992;8.856;2024-02-14T01:02:17;6.25;;;3.08;;
31206;SDS011;17834;52.992;8.856;2024-02-14T01:04:43;4.95;;;2.85;;
31206;SDS011;17834;52.992;8.856;2024-02-14T01:07:08;6.32;;;2.90;;
31206;SDS011;17834;52.992;8.856;2024-02-14T01:09:34;6.20;;;2.72;;
31206;SDS011;17834;52.992;8.856;2024-02-14T01:12:01;4.90;;;3.10;;
31206;SDS011;17834;52.992;8.856;2024-02-14T01:14:26;10.10;;;3.17;;
31206;SDS011;17834;52.992;8.856;2024-02-14T01:16:52;6.85;;;3.97;;
31206;SDS011;17834;52.992;8.856;2024-02-14T01:19:19;6.43;;;3.53;;
31206;SDS011;17834;52.992;8.856;2024-02-14T01:21:44;9.85;;;3.63;;
31206;SDS011;17834;52.992;8.856;2024-02-14T01:24:13;5.00;;;3.08;;
31206;SDS011;17834;52.992;8.856;2024-02-14T01:26:39;5.57;;;2.83;;
31206;SDS011;17834;52.992;8.856;2024-02-14T01:29:05;5.45;;;2.88;;
31206;SDS011;17834;52.992;8.856;2024-02-14T01:31:31;5.30;;;3.03;;
31206;SDS011;17834;52.992;8.856;2024-02-14T01:33:57;7.18;;;3.40;;
31206;SDS011;17834;52.992;8.856;2024-02-14T01:36:24;5.78;;;3.25;;
31206;SDS011;17834;52.992;8.856;2024-02-14T01:38:49;10.18;;;3.60;;
31206;SDS011;17834;52.992;8.856;2024-02-14T01:41:15;7.63;;;3.40;;
31206;SDS011;17834;52.992;8.856;2024-02-14T01:43:40;4.93;;;3.42;;
31206;SDS011;17834;52.992;8.856;2024-02-14T01:46:06;6.28;;;4.00;;
31206;SDS011;17834;52.992;8.856;2024-02-14T01:48:35;7.57;;;3.92;;
31206;SDS011;17834;52.992;8.856;2024-02-14T01:51:01;5.65;;;3.03;;
31206;SDS011;17834;52.992;8.856;2024-02-14T01:53:28;7.20;;;4.43;;
31206;SDS011;17834;52.992;8.856;2024-02-14T01:55:56;9.38;;;4.28;;
31206;SDS011;17834;52.992;8.856;2024-02-14T01:58:22;6.13;;;3.30;;
31206;SDS011;17834;52.992;8.856;2024-02-14T02:00:49;9.90;;;3.88;;
31206;SDS011;17834;52.992;8.856;2024-02-14T02:03:20;5.93;;;3.70;;
31206;SDS011;17834;52.992;8.856;2024-02-14T02:05:47;5.63;;;3.30;;
31206;SDS011;17834;52.992;8.856;2024-02-14T02:08:13;7.57;;;3.70;;
31206;SDS011;17834;52.992;8.856;2024-02-14T02:10:39;8.18;;;4.13;;
31206;SDS011;17834;52.992;8.856;2024-02-14T02:13:05;6.15;;;3.65;;
31206;SDS011;17834;52.992;8.856;2024-02-14T02:15:31;5.63;;;3.22;;
31206;SDS011;17834;52.992;8.856;2024-02-14T02:17:56;7.15;;;4.13;;
31206;SDS011;17834;52.992;8.856;2024-02-14T02:20:22;6.72;;;3.75;;
31206;SDS011;17834;52.992;8.856;2024-02-14T02:22:48;5.90;;;3.50;;
31206;SDS011;17834;52.992;8.856;2024-02-14T02:25:13;6.55;;;3.50;;
31206;SDS011;17834;52.992;8.856;2024-02-14T02:27:39;5.57;;;3.70;;
31206;SDS011;17834;52.992;8.856;2024-02-14T02:30:05;6.32;;;3.72;;
31206;SDS011;17834;52.992;8.856;2024-02-14T02:32:32;8.50;;;4.22;;
31206;SDS011;17834;52.992;8.856;2024-02-14T02:34:57;9.40;;;4.55;;
31206;SDS011;17834;52.992;8.856;2024-02-14T02:37:24;8.25;;;3.58;;
31206;SDS011;17834;52.992;8.856;2024-02-14T02:39:50;6.95;;;3.45;;
31206;SDS011;17834;52.992;8.856;2024-02-14T02:42:16;7.90;;;4.30;;
31206;SDS011;17834;52.992;8.856;2024-02-14T02:44:45;5.38;;;3.67;;
31206;SDS011;17834;52.992;8.856;2024-02-14T02:47:12;8.55;;;4.30;;
31206;SDS011;17834;52.992;8.856;2024-02-14T02:49:37;9.20;;;4.28;;
31206;SDS011;17834;52.992;8.856;2024-02-14T02:52:03;7.18;;;3.83;;
31206;SDS011;17834;52.992;8.856;2024-02-14T02:54:29;9.55;;;4.85;;
31206;SDS011;17834;52.992;8.856;2024-02-14T02:56:54;9.23;;;4.00;;
31206;SDS011;17834;52.992;8.856;2024-02-14T02:59:20;8.57;;;4.00;;
31206;SDS011;17834;52.992;8.856;2024-02-14T03:01:45;8.48;;;4.35;;
31206;SDS011;17834;52.992;8.856;2024-02-14T03:04:11;7.90;;;4.07;;
31206;SDS011;17834;52.992;8.856;2024-02-14T03:06:39;12.85;;;4.97;;
31206;SDS011;17834;52.992;8.856;2024-02-14T03:09:04;7.75;;;4.50;;
31206;SDS011;17834;52.992;8.856;2024-02-14T03:11:30;8.00;;;4.28;;
31206;SDS011;17834;52.992;8.856;2024-02-14T03:13:56;9.02;;;4.78;;
31206;SDS011;17834;52.992;8.856;2024-02-14T03:16:21;8.18;;;4.47;;
31206;SDS011;17834;52.992;8.856;2024-02-14T03:18:49;10.48;;;4.53;;
31206;SDS011;17834;52.992;8.856;2024-02-14T03:21:14;9.65;;;4.65;;
31206;SDS011;17834;52.992;8.856;2024-02-14T03:23:40;7.75;;;4.32;;
31206;SDS011;17834;52.992;8.856;2024-02-14T03:26:06;7.30;;;4.60;;
31206;SDS011;17834;52.992;8.856;2024-02-14T03:28:34;8.93;;;4.90;;
31206;SDS011;17834;52.992;8.856;2024-02-14T03:30:59;7.82;;;4.80;;
31206;SDS011;17834;52.992;8.856;2024-02-14T03:33:25;9.13;;;4.60;;
31206;SDS011;17834;52.992;8.856;2024-02-14T03:35:50;7.07;;;4.32;;
31206;SDS011;17834;52.992;8.856;2024-02-14T03:38:25;8.20;;;4.47;;
31206;SDS011;17834;52.992;8.856;2024-02-14T03:40:54;8.88;;;4.03;;
31206;SDS011;17834;52.992;8.856;2024-02-14T03:43:19;9.07;;;4.53;;
31206;SDS011;17834;52.992;8.856;2024-02-14T03:45:46;7.80;;;4.63;;
31206;SDS011;17834;52.992;8.856;2024-02-14T03:48:12;8.00;;;4.30;;
31206;SDS011;17834;52.992;8.856;2024-02-14T03:50:38;6.75;;;4.68;;
31206;SDS011;17834;52.992;8.856;2024-02-14T03:53:04;10.50;;;4.70;;
31206;SDS011;17834;52.992;8.856;2024-02-14T03:55:30;10.23;;;4.82;;
31206;SDS011;17834;52.992;8.856;2024-02-14T03:57:56;11.52;;;5.63;;
31206;SDS011;17834;52.992;8.856;2024-02-14T04:00:21;13.63;;;5.03;;
31206;SDS011;17834;52.992;8.856;2024-02-14T04:02:47;8.75;;;5.30;;
31206;SDS011;17834;52.992;8.856;2024-02-14T04:05:14;10.18;;;4.93;;
31206;SDS011;17834;52.992;8.856;2024-02-14T04:07:39;7.65;;;4.50;;
31206;SDS011;17834;52.992;8.856;2024-02-14T04:10:05;9.18;;;5.60;;
31206;SDS011;17834;52.992;8.856;2024-02-14T04:12:31;8.95;;;4.85;;
31206;SDS011;17834;52.992;8.856;2024-02-14T04:14:57;11.68;;;5.00;;
31206;SDS011;17834;52.992;8.856;2024-02-14T04:17:23;14.70;;;5.38;;
31206;SDS011;17834;52.992;8.856;2024-02-14T04:19:49;9.50;;;5.05;;
31206;SDS011;17834;52.992;8.856;2024-02-14T04:22:15;9.73;;;5.15;;
31206;SDS011;17834;52.992;8.856;2024-02-14T04:24:40;10.30;;;4.93;;
31206;SDS011;17834;52.992;8.856;2024-02-14T04:27:06;8.80;;;4.97;;
31206;SDS011;17834;52.992;8.856;2024-02-14T04:29:32;9.10;;;4.88;;
31206;SDS011;17834;52.992;8.856;2024-02-14T04:32:01;10.35;;;5.93;;
31206;SDS011;17834;52.992;8.856;2024-02-14T04:34:27;8.57;;;5.20;;
31206;SDS011;17834;52.992;8.856;2024-02-14T04:36:53;10.23;;;5.50;;
31206;SDS011;17834;52.992;8.856;2024-02-14T04:39:18;7.22;;;4.13;;
31206;SDS011;17834;52.992;8.856;2024-02-14T04:41:44;11.18;;;5.45;;
31206;SDS011;17834;52.992;8.856;2024-02-14T04:44:09;11.27;;;5.35;;
31206;SDS011;17834;52.992;8.856;2024-02-14T04:46:35;8.05;;;4.75;;
31206;SDS011;17834;52.992;8.856;2024-02-14T04:49:02;9.32;;;5.03;;
31206;SDS011;17834;52.992;8.856;2024-02-14T04:51:31;10.57;;;5.40;;
31206;SDS011;17834;52.992;8.856;2024-02-14T04:53:57;8.25;;;5.22;;
31206;SDS011;17834;52.992;8.856;2024-02-14T04:56:26;9.73;;;4.75;;
31206;SDS011;17834;52.992;8.856;2024-02-14T04:58:55;9.95;;;5.10;;
31206;SDS011;17834;52.992;8.856;2024-02-14T05:01:21;12.70;;;5.07;;
31206;SDS011;17834;52.992;8.856;2024-02-14T05:03:46;8.23;;;4.25;;
31206;SDS011;17834;52.992;8.856;2024-02-14T05:06:13;8.43;;;4.82;;
31206;SDS011;17834;52.992;8.856;2024-02-14T05:08:38;9.45;;;4.93;;
31206;SDS011;17834;52.992;8.856;2024-02-14T05:11:04;11.65;;;5.90;;
31206;SDS011;17834;52.992;8.856;2024-02-14T05:13:30;8.18;;;4.88;;
31206;SDS011;17834;52.992;8.856;2024-02-14T05:15:56;11.30;;;5.10;;
31206;SDS011;17834;52.992;8.856;2024-02-14T05:18:21;8.85;;;5.10;;
31206;SDS011;17834;52.992;8.856;2024-02-14T05:20:47;11.43;;;6.22;;
31206;SDS011;17834;52.992;8.856;2024-02-14T05:23:12;8.00;;;4.72;;
31206;SDS011;17834;52.992;8.856;2024-02-14T05:25:38;8.57;;;4.57;;
31206;SDS011;17834;52.992;8.856;2024-02-14T05:28:04;8.90;;;4.55;;
31206;SDS011;17834;52.992;8.856;2024-02-14T05:30:30;7.53;;;4.63;;
31206;SDS011;17834;52.992;8.856;2024-02-14T05:32:56;7.95;;;4.75;;
31206;SDS011;17834;52.992;8.856;2024-02-14T05:35:22;8.10;;;4.72;;
31206;SDS011;17834;52.992;8.856;2024-02-14T05:37:48;9.00;;;4.93;;
31206;SDS011;17834;52.992;8.856;2024-02-14T05:40:15;10.70;;;5.00;;
31206;SDS011;17834;52.992;8.856;2024-02-14T05:42:40;8.90;;;5.10;;
31206;SDS011;17834;52.992;8.856;2024-02-14T05:45:06;8.13;;;5.22;;
31206;SDS011;17834;52.992;8.856;2024-02-14T05:47:34;9.02;;;5.20;;
31206;SDS011;17834;52.992;8.856;2024-02-14T05:50:00;9.68;;;5.80;;
31206;SDS011;17834;52.992;8.856;2024-02-14T05:52:25;7.95;;;4.75;;
31206;SDS011;17834;52.992;8.856;2024-02-14T05:54:51;8.82;;;4.75;;
31206;SDS011;17834;52.992;8.856;2024-02-14T05:57:16;9.32;;;4.85;;
31206;SDS011;17834;52.992;8.856;2024-02-14T05:59:42;12.02;;;6.43;;
31206;SDS011;17834;52.992;8.856;2024-02-14T06:02:07;9.82;;;5.50;;
31206;SDS011;17834;52.992;8.856;2024-02-14T06:04:34;8.63;;;5.35;;
31206;SDS011;17834;52.992;8.856;2024-02-14T06:07:00;10.60;;;5.90;;
31206;SDS011;17834;52.992;8.856;2024-02-14T06:09:26;9.18;;;5.13;;
31206;SDS011;17834;52.992;8.856;2024-02-14T06:11:52;8.10;;;4.85;;
31206;SDS011;17834;52.992;8.856;2024-02-14T06:14:18;8.77;;;5.22;;
31206;SDS011;17834;52.992;8.856;2024-02-14T06:16:43;9.25;;;5.07;;
31206;SDS011;17834;52.992;8.856;2024-02-14T06:19:09;10.00;;;5.75;;
31206;SDS011;17834;52.992;8.856;2024-02-14T06:21:36;9.68;;;5.10;;
31206;SDS011;17834;52.992;8.856;2024-02-14T06:24:01;9.45;;;5.70;;
31206;SDS011;17834;52.992;8.856;2024-02-14T06:26:29;11.07;;;5.28;;
31206;SDS011;17834;52.992;8.856;2024-02-14T06:28:55;9.95;;;5.63;;
31206;SDS011;17834;52.992;8.856;2024-02-14T06:31:21;8.32;;;5.88;;
31206;SDS011;17834;52.992;8.856;2024-02-14T06:33:47;9.48;;;5.75;;
31206;SDS011;17834;52.992;8.856;2024-02-14T06:36:13;9.18;;;5.50;;
31206;SDS011;17834;52.992;8.856;2024-02-14T06:38:38;8.93;;;5.35;;
31206;SDS011;17834;52.992;8.856;2024-02-14T06:41:05;10.43;;;6.10;;
31206;SDS011;17834;52.992;8.856;2024-02-14T06:43:30;10.27;;;6.00;;
31206;SDS011;17834;52.992;8.856;2024-02-14T06:45:56;10.82;;;5.90;;
31206;SDS011;17834;52.992;8.856;2024-02-14T06:48:22;9.70;;;5.63;;
31206;SDS011;17834;52.992;8.856;2024-02-14T06:50:49;11.88;;;6.57;;
31206;SDS011;17834;52.992;8.856;2024-02-14T06:53:15;10.77;;;5.93;;
31206;SDS011;17834;52.992;8.856;2024-02-14T06:55:40;10.60;;;6.00;;
31206;SDS011;17834;52.992;8.856;2024-02-14T06:58:06;9.55;;;5.45;;
31206;SDS011;17834;52.992;8.856;2024-02-14T07:00:31;10.07;;;5.82;;
31206;SDS011;17834;52.992;8.856;2024-02-14T07:02:57;10.23;;;5.88;;
31206;SDS011;17834;52.992;8.856;2024-02-14T07:05:23;15.55;;;6.18;;
31206;SDS011;17834;52.992;8.856;2024-02-14T07:07:48;11.77;;;6.05;;
31206;SDS011;17834;52.992;8.856;2024-02-14T07:10:14;11.25;;;5.28;;
31206;SDS011;17834;52.992;8.856;2024-02-14T07:12:40;11.88;;;6.07;;
31206;SDS011;17834;52.992;8.856;2024-02-14T07:15:06;9.90;;;5.38;;
31206;SDS011;17834;52.992;8.856;2024-02-14T07:17:31;10.68;;;6.35;;
31206;SDS011;17834;52.992;8.856;2024-02-14T07:19:57;11.30;;;5.45;;
31206;SDS011;17834;52.992;8.856;2024-02-14T07:22:23;9.48;;;5.00;;
31206;SDS011;17834;52.992;8.856;2024-02-14T07:24:48;8.10;;;4.65;;
31206;SDS011;17834;52.992;8.856;2024-02-14T07:27:14;8.35;;;4.88;;
31206;SDS011;17834;52.992;8.856;2024-02-14T07:29:41;8.18;;;4.60;;
31206;SDS011;17834;52.992;8.856;2024-02-14T07:32:07;7.97;;;4.88;;
31206;SDS011;17834;52.992;8.856;2024-02-14T07:34:32;8.43;;;4.63;;
31206;SDS011;17834;52.992;8.856;2024-02-14T07:36:58;8.07;;;4.68;;
31206;SDS011;17834;52.992;8.856;2024-02-14T07:39:23;8.73;;;4.80;;
31206;SDS011;17834;52.992;8.856;2024-02-14T07:41:49;8.80;;;4.22;;
31206;SDS011;17834;52.992;8.856;2024-02-14T07:44:15;7.55;;;4.45;;
31206;SDS011;17834;52.992;8.856;2024-02-14T07:46:41;8.90;;;4.65;;
31206;SDS011;17834;52.992;8.856;2024-02-14T07:49:06;7.53;;;4.40;;
31206;SDS011;17834;52.992;8.856;2024-02-14T07:51:33;8.27;;;5.00;;
31206;SDS011;17834;52.992;8.856;2024-02-14T07:54:02;7.15;;;4.05;;
31206;SDS011;17834;52.992;8.856;2024-02-14T07:56:29;9.70;;;4.68;;
31206;SDS011;17834;52.992;8.856;2024-02-14T07:58:54;6.40;;;3.97;;
31206;SDS011;17834;52.992;8.856;2024-02-14T08:01:20;9.23;;;4.10;;
31206;SDS011;17834;52.992;8.856;2024-02-14T08:03:45;7.47;;;4.15;;
31206;SDS011;17834;52.992;8.856;2024-02-14T08:06:11;6.25;;;3.50;;
31206;SDS011;17834;52.992;8.856;2024-02-14T08:08:37;6.80;;;3.40;;
31206;SDS011;17834;52.992;8.856;2024-02-14T08:11:02;6.57;;;3.70;;
31206;SDS011;17834;52.992;8.856;2024-02-14T08:13:28;7.55;;;3.65;;
31206;SDS011;17834;52.992;8.856;2024-02-14T08:15:54;5.22;;;3.22;;
31206;SDS011;17834;52.992;8.856;2024-02-14T08:18:19;5.68;;;2.88;;
31206;SDS011;17834;52.992;8.856;2024-02-14T08:20:45;7.18;;;2.92;;
31206;SDS011;17834;52.992;8.856;2024-02-14T08:23:10;5.68;;;3.22;;
31206;SDS011;17834;52.992;8.856;2024-02-14T08:25:36;4.38;;;2.85;;
31206;SDS011;17834;52.992;8.856;2024-02-14T08:28:02;5.45;;;3.03;;
31206;SDS011;17834;52.992;8.856;2024-02-14T08:30:27;5.30;;;2.65;;
31206;SDS011;17834;52.992;8.856;2024-02-14T08:32:53;5.35;;;3.00;;
31206;SDS011;17834;52.992;8.856;2024-02-14T08:35:19;4.68;;;2.47;;
31206;SDS011;17834;52.992;8.856;2024-02-14T08:37:44;4.43;;;2.80;;
31206;SDS011;17834;52.992;8.856;2024-02-14T08:40:10;5.85;;;3.00;;
31206;SDS011;17834;52.992;8.856;2024-02-14T08:42:37;4.35;;;2.22;;
31206;SDS011;17834;52.992;8.856;2024-02-14T08:45:03;6.30;;;2.60;;
31206;SDS011;17834;52.992;8.856;2024-02-14T08:47:29;5.68;;;2.88;;
31206;SDS011;17834;52.992;8.856;2024-02-14T08:49:55;5.88;;;2.75;;
31206;SDS011;17834;52.992;8.856;2024-02-14T08:52:20;5.28;;;2.80;;
31206;SDS011;17834;52.992;8.856;2024-02-14T08:54:46;6.07;;;2.83;;
31206;SDS011;17834;52.992;8.856;2024-02-14T08:57:12;7.40;;;3.65;;
31206;SDS011;17834;52.992;8.856;2024-02-14T08:59:38;5.68;;;3.05;;
31206;SDS011;17834;52.992;8.856;2024-02-14T09:02:03;5.15;;;2.83;;
31206;SDS011;17834;52.992;8.856;2024-02-14T09:04:28;6.03;;;3.60;;
31206;SDS011;17834;52.992;8.856;2024-02-14T09:06:54;6.97;;;3.60;;
31206;SDS011;17834;52.992;8.856;2024-02-14T09:09:20;8.68;;;4.07;;
31206;SDS011;17834;52.992;8.856;2024-02-14T09:11:45;6.85;;;3.78;;
31206;SDS011;17834;52.992;8.856;2024-02-14T09:14:11;8.45;;;4.18;;
31206;SDS011;17834;52.992;8.856;2024-02-14T09:16:37;7.47;;;4.07;;
31206;SDS011;17834;52.992;8.856;2024-02-14T09:19:03;8.68;;;5.25;;
31206;SDS011;17834;52.992;8.856;2024-02-14T09:21:32;7.38;;;4.32;;
31206;SDS011;17834;52.992;8.856;2024-02-14T09:24:00;6.57;;;3.85;;
31206;SDS011;17834;52.992;8.856;2024-02-14T09:26:26;6.60;;;3.53;;
31206;SDS011;17834;52.992;8.856;2024-02-14T09:28:51;6.60;;;3.92;;
31206;SDS011;17834;52.992;8.856;2024-02-14T09:31:17;6.60;;;3.78;;
31206;SDS011;17834;52.992;8.856;2024-02-14T09:33:44;8.82;;;4.63;;
31206;SDS011;17834;52.992;8.856;2024-02-14T09:36:12;10.52;;;4.25;;
31206;SDS011;17834;52.992;8.856;2024-02-14T09:38:39;9.07;;;5.10;;
31206;SDS011;17834;52.992;8.856;2024-02-14T09:43:43;8.63;;;4.45;;
31206;SDS011;17834;52.992;8.856;2024-02-14T09:46:12;8.68;;;4.82;;
31206;SDS011;17834;52.992;8.856;2024-02-14T09:48:39;8.73;;;4.80;;
31206;SDS011;17834;52.992;8.856;2024-02-14T09:51:08;8.60;;;4.15;;
31206;SDS011;17834;52.992;8.856;2024-02-14T09:53:35;9.02;;;4.75;;
31206;SDS011;17834;52.992;8.856;2024-02-14T09:56:01;9.70;;;5.00;;
31206;SDS011;17834;52.992;8.856;2024-02-14T09:58:27;10.82;;;4.90;;
31206;SDS011;17834;52.992;8.856;2024-02-14T10:00:53;8.18;;;4.82;;
31206;SDS011;17834;52.992;8.856;2024-02-14T10:03:18;8.70;;;4.50;;
31206;SDS011;17834;52.992;8.856;2024-02-14T10:05:44;9.75;;;4.82;;
31206;SDS011;17834;52.992;8.856;2024-02-14T10:08:10;11.80;;;5.07;;
31206;SDS011;17834;52.992;8.856;2024-02-14T10:10:37;9.27;;;5.45;;
31206;SDS011;17834;52.992;8.856;2024-02-14T10:13:03;11.50;;;5.53;;
31206;SDS011;17834;52.992;8.856;2024-02-14T10:15:30;8.27;;;4.47;;
31206;SDS011;17834;52.992;8.856;2024-02-14T10:17:57;9.38;;;4.50;;
31206;SDS011;17834;52.992;8.856;2024-02-14T10:20:23;9.43;;;4.95;;
31206;SDS011;17834;52.992;8.856;2024-02-14T10:22:49;7.80;;;4.55;;
31206;SDS011;17834;52.992;8.856;2024-02-14T10:25:14;9.13;;;4.35;;
31206;SDS011;17834;52.992;8.856;2024-02-14T10:27:40;8.30;;;4.40;;
31206;SDS011;17834;52.992;8.856;2024-02-14T10:30:06;9.93;;;4.95;;
31206;SDS011;17834;52.992;8.856;2024-02-14T10:32:34;8.75;;;4.78;;
31206;SDS011;17834;52.992;8.856;2024-02-14T10:35:04;6.95;;;4.15;;
31206;SDS011;17834;52.992;8.856;2024-02-14T10:37:36;7.97;;;4.57;;
31206;SDS011;17834;52.992;8.856;2024-02-14T10:40:02;7.18;;;4.07;;
31206;SDS011;17834;52.992;8.856;2024-02-14T10:42:29;7.32;;;4.55;;
31206;SDS011;17834;52.992;8.856;2024-02-14T10:44:58;8.13;;;4.90;;
31206;SDS011;17834;52.992;8.856;2024-02-14T10:47:31;7.38;;;4.28;;
31206;SDS011;17834;52.992;8.856;2024-02-14T10:50:01;8.85;;;4.80;;
31206;SDS011;17834;52.992;8.856;2024-02-14T10:52:30;8.27;;;4.95;;
31206;SDS011;17834;52.992;8.856;2024-02-14T10:55:01;8.85;;;4.90;;
31206;SDS011;17834;52.992;8.856;2024-02-14T10:57:28;7.68;;;4.18;;
31206;SDS011;17834;52.992;8.856;2024-02-14T10:59:54;10.80;;;4.75;;
31206;SDS011;17834;52.992;8.856;2024-02-14T11:02:22;8.50;;;5.13;;
31206;SDS011;17834;52.992;8.856;2024-02-14T11:04:48;7.63;;;4.85;;
31206;SDS011;17834;52.992;8.856;2024-02-14T11:07:18;7.65;;;4.15;;
31206;SDS011;17834;52.992;8.856;2024-02-14T11:09:45;7.75;;;4.45;;
31206;SDS011;17834;52.992;8.856;2024-02-14T11:12:10;8.23;;;4.88;;
31206;SDS011;17834;52.992;8.856;2024-02-14T11:14:36;6.93;;;4.35;;
31206;SDS011;17834;52.992;8.856;2024-02-14T11:17:04;7.15;;;3.90;;
31206;SDS011;17834;52.992;8.856;2024-02-14T11:19:34;6.93;;;3.90;;
31206;SDS011;17834;52.992;8.856;2024-02-14T11:22:12;7.43;;;3.90;;
31206;SDS011;17834;52.992;8.856;2024-02-14T11:24:42;5.97;;;3.60;;
31206;SDS011;17834;52.992;8.856;2024-02-14T11:27:11;6.22;;;3.58;;
31206;SDS011;17834;52.992;8.856;2024-02-14T11:29:38;8.20;;;3.88;;
31206;SDS011;17834;52.992;8.856;2024-02-14T11:32:06;6.88;;;3.80;;
31206;SDS011;17834;52.992;8.856;2024-02-14T11:34:34;5.30;;;3.17;;
31206;SDS011;17834;52.992;8.856;2024-02-14T11:37:00;5.70;;;3.47;;
31206;SDS011;17834;52.992;8.856;2024-02-14T11:39:25;5.25;;;3.22;;
31206;SDS011;17834;52.992;8.856;2024-02-14T11:41:51;6.80;;;3.30;;
31206;SDS011;17834;52.992;8.856;2024-02-14T11:44:23;10.07;;;3.78;;
31206;SDS011;17834;52.992;8.856;2024-02-14T11:46:48;7.43;;;3.42;;
31206;SDS011;17834;52.992;8.856;2024-02-14T11:49:14;5.38;;;2.88;;
31206;SDS011;17834;52.992;8.856;2024-02-14T11:51:41;4.95;;;3.00;;
31206;SDS011;17834;52.992;8.856;2024-02-14T11:54:07;5.00;;;2.75;;
31206;SDS011;17834;52.992;8.856;2024-02-14T11:56:35;5.97;;;3.35;;
31206;SDS011;17834;52.992;8.856;2024-02-14T11:59:02;5.68;;;2.85;;
31206;SDS011;17834;52.992;8.856;2024-02-14T12:01:30;4.57;;;2.35;;
31206;SDS011;17834;52.992;8.856;2024-02-14T12:03:57;6.70;;;3.13;;
31206;SDS011;17834;52.992;8.856;2024-02-14T12:06:25;6.47;;;2.85;;
31206;SDS011;17834;52.992;8.856;2024-02-14T12:08:52;5.70;;;3.08;;
31206;SDS011;17834;52.992;8.856;2024-02-14T12:11:18;5.28;;;2.53;;
31206;SDS011;17834;52.992;8.856;2024-02-14T12:13:48;4.90;;;2.60;;
31206;SDS011;17834;52.992;8.856;2024-02-14T12:16:18;4.10;;;2.47;;
31206;SDS011;17834;52.992;8.856;2024-02-14T12:18:50;4.22;;;2.20;;
31206;SDS011;17834;52.992;8.856;2024-02-14T12:21:33;4.28;;;2.60;;
31206;SDS011;17834;52.992;8.856;2024-02-14T12:24:00;4.30;;;2.25;;
31206;SDS011;17834;52.992;8.856;2024-02-14T12:26:25;5.15;;;3.05;;
31206;SDS011;17834;52.992;8.856;2024-02-14T12:28:51;5.03;;;2.78;;
31206;SDS011;17834;52.992;8.856;2024-02-14T12:31:23;3.55;;;2.25;;
31206;SDS011;17834;52.992;8.856;2024-02-14T12:33:49;3.70;;;2.40;;
31206;SDS011;17834;52.992;8.856;2024-02-14T12:36:17;3.08;;;2.15;;
31206;SDS011;17834;52.992;8.856;2024-02-14T12:38:43;5.13;;;2.72;;
31206;SDS011;17834;52.992;8.856;2024-02-14T12:41:09;4.10;;;2.85;;
31206;SDS011;17834;52.992;8.856;2024-02-14T12:43:35;3.90;;;2.35;;
31206;SDS011;17834;52.992;8.856;2024-02-14T12:46:01;6.60;;;2.70;;
31206;SDS011;17834;52.992;8.856;2024-02-14T12:48:26;5.20;;;3.13;;
31206;SDS011;17834;52.992;8.856;2024-02-14T12:50:53;5.65;;;3.25;;
31206;SDS011;17834;52.992;8.856;2024-02-14T12:53:19;3.25;;;2.13;;
31206;SDS011;17834;52.992;8.856;2024-02-14T12:55:46;5.88;;;2.75;;
31206;SDS011;17834;52.992;8.856;2024-02-14T12:58:12;4.63;;;2.28;;
31206;SDS011;17834;52.992;8.856;2024-02-14T13:00:37;5.70;;;2.67;;
31206;SDS011;17834;52.992;8.856;2024-02-14T13:03:03;4.57;;;2.42;;
31206;SDS011;17834;52.992;8.856;2024-02-14T13:05:29;5.15;;;2.65;;
31206;SDS011;17834;52.992;8.856;2024-02-14T13:07:55;4.10;;;2.47;;
31206;SDS011;17834;52.992;8.856;2024-02-14T13:10:20;4.55;;;2.58;;
31206;SDS011;17834;52.992;8.856;2024-02-14T13:12:47;5.57;;;2.55;;
31206;SDS011;17834;52.992;8.856;2024-02-14T13:15:12;5.65;;;2.53;;
31206;SDS011;17834;52.992;8.856;2024-02-14T13:17:38;4.57;;;2.90;;
31206;SDS011;17834;52.992;8.856;2024-02-14T13:20:03;5.10;;;3.63;;
31206;SDS011;17834;52.992;8.856;2024-02-14T13:22:30;5.30;;;2.90;;
31206;SDS011;17834;52.992;8.856;2024-02-14T13:24:55;5.97;;;2.92;;
31206;SDS011;17834;52.992;8.856;2024-02-14T13:27:21;3.92;;;2.70;;
31206;SDS011;17834;52.992;8.856;2024-02-14T13:29:48;4.20;;;2.83;;
31206;SDS011;17834;52.992;8.856;2024-02-14T13:32:13;5.15;;;3.28;;
31206;SDS011;17834;52.992;8.856;2024-02-14T13:34:39;4.85;;;2.90;;
31206;SDS011;17834;52.992;8.856;2024-02-14T13:37:04;4.93;;;2.78;;
31206;SDS011;17834;52.992;8.856;2024-02-14T13:39:30;4.95;;;2.92;;
31206;SDS011;17834;52.992;8.856;2024-02-14T13:41:56;4.63;;;2.78;;
31206;SDS011;17834;52.992;8.856;2024-02-14T13:44:24;5.25;;;3.30;;
31206;SDS011;17834;52.992;8.856;2024-02-14T13:46:49;6.05;;;3.10;;
31206;SDS011;17834;52.992;8.856;2024-02-14T13:49:17;5.63;;;3.13;;
31206;SDS011;17834;52.992;8.856;2024-02-14T13:51:48;5.40;;;3.00;;
31206;SDS011;17834;52.992;8.856;2024-02-14T13:54:15;5.00;;;3.00;;
31206;SDS011;17834;52.992;8.856;2024-02-14T13:56:41;5.13;;;2.83;;
31206;SDS011;17834;52.992;8.856;2024-02-14T13:59:06;7.20;;;3.65;;
31206;SDS011;17834;52.992;8.856;2024-02-14T14:01:31;7.90;;;3.50;;
31206;SDS011;17834;52.992;8.856;2024-02-14T14:03:57;6.82;;;3.47;;
31206;SDS011;17834;52.992;8.856;2024-02-14T14:06:23;6.40;;;3.22;;
31206;SDS011;17834;52.992;8.856;2024-02-14T14:08:49;6.28;;;3.63;;
31206;SDS011;17834;52.992;8.856;2024-02-14T14:11:15;4.82;;;3.05;;
31206;SDS011;17834;52.992;8.856;2024-02-14T14:13:40;5.03;;;3.47;;
31206;SDS011;17834;52.992;8.856;2024-02-14T14:16:05;7.43;;;4.00;;
31206;SDS011;17834;52.992;8.856;2024-02-14T14:18:31;7.07;;;4.18;;
31206;SDS011;17834;52.992;8.856;2024-02-14T14:20:57;5.18;;;2.97;;
31206;SDS011;17834;52.992;8.856;2024-02-14T14:23:23;5.53;;;3.47;;
31206;SDS011;17834;52.992;8.856;2024-02-14T14:25:48;5.75;;;3.00;;
31206;SDS011;17834;52.992;8.856;2024-02-14T14:28:14;4.47;;;2.70;;
31206;SDS011;17834;52.992;8.856;2024-02-14T14:30:40;4.82;;;2.72;;
31206;SDS011;17834;52.992;8.856;2024-02-14T14:33:06;4.70;;;2.45;;
31206;SDS011;17834;52.992;8.856;2024-02-14T14:35:33;8.52;;;2.90;;
31206;SDS011;17834;52.992;8.856;2024-02-14T14:37:59;6.82;;;3.08;;
31206;SDS011;17834;52.992;8.856;2024-02-14T14:40:24;3.97;;;2.33;;
31206;SDS011;17834;52.992;8.856;2024-02-14T14:42:51;4.43;;;2.40;;